sensor_id;sensor_type;location;lat;lon;timestamp;temperature;humidity
54082;DHT22;39986;50.770;0.266;2024-02-21T00:00:14;9.70;99.90
54082;DHT22;39986;50.770;0.266;2024-02-21T00:05:06;9.90;99.90
54082;DHT22;39986;50.770;0.266;2024-02-21T00:12:24;9.80;99.90
54082;DHT22;39986;50.770;0.266;2024-02-21T00:14:49;9.80;99.90
54082;DHT22;39986;50.770;0.266;2024-02-21T00:17:15;9.80;99.90
54082;DHT22;39986;50.770;0.266;2024-02-21T00:22:06;9.90;99.90
54082;DHT22;39986;50.770;0.266;2024-02-21T00:24:32;9.90;99.90
54082;DHT22;39986;50.770;0.266;2024-02-21T00:26:57;9.80;99.90
54082;DHT22;39986;50.770;0.266;2024-02-21T00:29:23;9.90;99.90
54082;DHT22;39986;50.770;0.266;2024-02-21T00:31:48;9.80;99.90
54082;DHT22;39986;50.770;0.266;2024-02-21T00:34:14;9.90;99.90
54082;DHT22;39986;50.770;0.266;2024-02-21T00:39:05;9.90;99.90
54082;DHT22;39986;50.770;0.266;2024-02-21T00:41:31;9.80;99.90
54082;DHT22;39986;50.770;0.266;2024-02-21T00:43:57;9.90;99.90
54082;DHT22;39986;50.770;0.266;2024-02-21T00:46:22;9.80;99.90
54082;DHT22;39986;50.770;0.266;2024-02-21T00:48:48;9.70;99.90
54082;DHT22;39986;50.770;0.266;2024-02-21T00:51:15;9.80;99.90
54082;DHT22;39986;50.770;0.266;2024-02-21T00:53:42;9.70;99.90
54082;DHT22;39986;50.770;0.266;2024-02-21T00:56:07;9.70;99.90
54082;DHT22;39986;50.770;0.266;2024-02-21T00:58:33;9.70;99.90
54082;DHT22;39986;50.770;0.266;2024-02-21T01:03:24;9.80;99.90
54082;DHT22;39986;50.770;0.266;2024-02-21T01:05:50;9.70;99.90
54082;DHT22;39986;50.770;0.266;2024-02-21T01:08:15;9.80;99.90
54082;DHT22;39986;50.770;0.266;2024-02-21T01:10:41;9.70;99.90
54082;DHT22;39986;50.770;0.266;2024-02-21T01:13:06;9.90;99.90
54082;DHT22;39986;50.770;0.266;2024-02-21T01:15:35;9.70;99.90
54082;DHT22;39986;50.770;0.266;2024-02-21T01:18:01;9.80;99.90
54082;DHT22;39986;50.770;0.266;2024-02-21T01:20:26;9.70;99.90
54082;DHT22;39986;50.770;0.266;2024-02-21T01:22:52;9.70;99.90
54082;DHT22;39986;50.770;0.266;2024-02-21T01:27:43;9.70;99.90
54082;DHT22;39986;50.770;0.266;2024-02-21T01:30:09;9.70;99.90
54082;DHT22;39986;50.770;0.266;2024-02-21T01:35:02;9.70;99.90
54082;DHT22;39986;50.770;0.266;2024-02-21T01:37:27;9.80;99.90
54082;DHT22;39986;50.770;0.266;2024-02-21T01:39:53;9.70;99.90
54082;DHT22;39986;50.770;0.266;2024-02-21T01:42:18;9.80;99.90
54082;DHT22;39986;50.770;0.266;2024-02-21T01:47:10;9.80;99.90
54082;DHT22;39986;50.770;0.266;2024-02-21T01:49:36;9.70;99.90
54082;DHT22;39986;50.770;0.266;2024-02-21T01:52:02;9.80;99.90
54082;DHT22;39986;50.770;0.266;2024-02-21T01:54:28;9.60;99.90
54082;DHT22;39986;50.770;0.266;2024-02-21T01:59:20;9.70;99.90
54082;DHT22;39986;50.770;0.266;2024-02-21T02:01:46;9.60;99.90
54082;DHT22;39986;50.770;0.266;2024-02-21T02:06:39;9.70;99.90
54082;DHT22;39986;50.770;0.266;2024-02-21T02:09:05;9.50;99.90
54082;DHT22;39986;50.770;0.266;2024-02-21T02:11:31;9.70;99.90
54082;DHT22;39986;50.770;0.266;2024-02-21T02:13:57;9.70;99.90
54082;DHT22;39986;50.770;0.266;2024-02-21T02:16:22;9.70;99.90
54082;DHT22;39986;50.770;0.266;2024-02-21T02:18:48;9.70;99.90
54082;DHT22;39986;50.770;0.266;2024-02-21T02:21:16;9.60;99.90
54082;DHT22;39986;50.770;0.266;2024-02-21T02:23:48;9.60;99.90
54082;DHT22;39986;50.770;0.266;2024-02-21T02:26:14;9.60;99.90
54082;DHT22;39986;50.770;0.266;2024-02-21T02:28:39;9.80;99.90
54082;DHT22;39986;50.770;0.266;2024-02-21T02:33:30;9.70;99.90
54082;DHT22;39986;50.770;0.266;2024-02-21T02:35:56;9.80;99.90
54082;DHT22;39986;50.770;0.266;2024-02-21T02:40:49;9.60;99.90
54082;DHT22;39986;50.770;0.266;2024-02-21T02:43:14;9.80;99.90
54082;DHT22;39986;50.770;0.266;2024-02-21T02:45:40;9.80;99.90
54082;DHT22;39986;50.770;0.266;2024-02-21T02:48:05;9.90;99.90
54082;DHT22;39986;50.770;0.266;2024-02-21T02:50:31;9.70;99.90
54082;DHT22;39986;50.770;0.266;2024-02-21T02:52:56;9.80;99.90
54082;DHT22;39986;50.770;0.266;2024-02-21T02:55:22;9.70;99.90
54082;DHT22;39986;50.770;0.266;2024-02-21T02:57:47;9.80;99.90
54082;DHT22;39986;50.770;0.266;2024-02-21T03:00:13;9.60;99.90
54082;DHT22;39986;50.770;0.266;2024-02-21T03:02:40;9.10;99.90
54082;DHT22;39986;50.770;0.266;2024-02-21T03:05:26;9.70;99.90
54082;DHT22;39986;50.770;0.266;2024-02-21T03:07:51;9.80;99.90
54082;DHT22;39986;50.770;0.266;2024-02-21T03:10:16;9.70;99.90
54082;DHT22;39986;50.770;0.266;2024-02-21T03:12:42;9.80;99.90
54082;DHT22;39986;50.770;0.266;2024-02-21T03:15:08;9.80;99.90
54082;DHT22;39986;50.770;0.266;2024-02-21T03:17:34;9.90;99.90
54082;DHT22;39986;50.770;0.266;2024-02-21T03:20:00;9.70;99.90
54082;DHT22;39986;50.770;0.266;2024-02-21T03:22:26;9.70;99.90
54082;DHT22;39986;50.770;0.266;2024-02-21T03:24:51;9.80;99.90
54082;DHT22;39986;50.770;0.266;2024-02-21T03:27:16;9.40;99.90
54082;DHT22;39986;50.770;0.266;2024-02-21T03:29:42;9.80;99.90
54082;DHT22;39986;50.770;0.266;2024-02-21T03:32:08;9.70;99.90
54082;DHT22;39986;50.770;0.266;2024-02-21T03:34:33;9.80;99.90
54082;DHT22;39986;50.770;0.266;2024-02-21T03:36:59;9.70;99.90
54082;DHT22;39986;50.770;0.266;2024-02-21T03:39:25;9.80;99.90
54082;DHT22;39986;50.770;0.266;2024-02-21T03:41:50;9.70;99.90
54082;DHT22;39986;50.770;0.266;2024-02-21T03:44:16;9.80;99.90
54082;DHT22;39986;50.770;0.266;2024-02-21T03:46:42;9.60;99.90
54082;DHT22;39986;50.770;0.266;2024-02-21T03:49:07;9.60;99.90
54082;DHT22;39986;50.770;0.266;2024-02-21T03:51:33;9.70;99.90
54082;DHT22;39986;50.770;0.266;2024-02-21T03:53:58;9.60;99.90
54082;DHT22;39986;50.770;0.266;2024-02-21T03:56:24;9.70;99.90
54082;DHT22;39986;50.770;0.266;2024-02-21T03:58:49;9.50;99.90
54082;DHT22;39986;50.770;0.266;2024-02-21T04:01:15;9.70;99.90
54082;DHT22;39986;50.770;0.266;2024-02-21T04:03:41;9.80;99.90
54082;DHT22;39986;50.770;0.266;2024-02-21T04:06:09;9.70;99.90
54082;DHT22;39986;50.770;0.266;2024-02-21T04:08:35;9.60;99.90
54082;DHT22;39986;50.770;0.266;2024-02-21T04:11:00;9.60;99.90
54082;DHT22;39986;50.770;0.266;2024-02-21T04:13:26;9.60;99.90
54082;DHT22;39986;50.770;0.266;2024-02-21T04:15:52;9.70;99.90
54082;DHT22;39986;50.770;0.266;2024-02-21T04:18:17;9.60;99.90
54082;DHT22;39986;50.770;0.266;2024-02-21T04:20:43;9.60;99.90
54082;DHT22;39986;50.770;0.266;2024-02-21T04:23:08;9.60;99.90
54082;DHT22;39986;50.770;0.266;2024-02-21T04:25:34;9.60;99.90
54082;DHT22;39986;50.770;0.266;2024-02-21T04:28:00;9.60;99.90
54082;DHT22;39986;50.770;0.266;2024-02-21T04:30:25;9.50;99.90
54082;DHT22;39986;50.770;0.266;2024-02-21T04:32:51;9.70;99.90
54082;DHT22;39986;50.770;0.266;2024-02-21T04:35:16;9.60;99.90
54082;DHT22;39986;50.770;0.266;2024-02-21T04:37:42;9.70;99.90
54082;DHT22;39986;50.770;0.266;2024-02-21T04:40:08;9.70;99.90
54082;DHT22;39986;50.770;0.266;2024-02-21T04:42:34;9.50;99.90
54082;DHT22;39986;50.770;0.266;2024-02-21T04:45:00;9.60;99.90
54082;DHT22;39986;50.770;0.266;2024-02-21T04:47:25;9.50;99.90
54082;DHT22;39986;50.770;0.266;2024-02-21T04:49:51;9.50;99.90
54082;DHT22;39986;50.770;0.266;2024-02-21T04:52:17;9.60;99.90
54082;DHT22;39986;50.770;0.266;2024-02-21T04:54:42;9.50;99.90
54082;DHT22;39986;50.770;0.266;2024-02-21T04:57:08;9.50;99.90
54082;DHT22;39986;50.770;0.266;2024-02-21T04:59:35;9.50;99.90
54082;DHT22;39986;50.770;0.266;2024-02-21T05:02:01;9.60;99.90
54082;DHT22;39986;50.770;0.266;2024-02-21T05:04:27;9.60;99.90
54082;DHT22;39986;50.770;0.266;2024-02-21T05:06:52;9.60;99.90
54082;DHT22;39986;50.770;0.266;2024-02-21T05:09:18;9.50;99.90
54082;DHT22;39986;50.770;0.266;2024-02-21T05:11:43;9.60;99.90
54082;DHT22;39986;50.770;0.266;2024-02-21T05:14:09;9.60;99.90
54082;DHT22;39986;50.770;0.266;2024-02-21T05:16:34;9.40;99.90
54082;DHT22;39986;50.770;0.266;2024-02-21T05:19:00;9.40;99.90
54082;DHT22;39986;50.770;0.266;2024-02-21T05:21:25;9.50;99.90
54082;DHT22;39986;50.770;0.266;2024-02-21T05:23:53;9.50;99.90
54082;DHT22;39986;50.770;0.266;2024-02-21T05:26:22;9.50;99.90
54082;DHT22;39986;50.770;0.266;2024-02-21T05:28:48;9.30;99.90
54082;DHT22;39986;50.770;0.266;2024-02-21T05:31:13;9.30;99.90
54082;DHT22;39986;50.770;0.266;2024-02-21T05:33:39;9.40;99.90
54082;DHT22;39986;50.770;0.266;2024-02-21T05:36:05;9.40;99.90
54082;DHT22;39986;50.770;0.266;2024-02-21T05:38:31;9.40;99.90
54082;DHT22;39986;50.770;0.266;2024-02-21T05:40:56;9.40;99.90
54082;DHT22;39986;50.770;0.266;2024-02-21T05:43:22;9.40;99.90
54082;DHT22;39986;50.770;0.266;2024-02-21T05:45:48;9.50;99.90
54082;DHT22;39986;50.770;0.266;2024-02-21T05:48:14;9.40;99.90
54082;DHT22;39986;50.770;0.266;2024-02-21T05:50:39;9.50;99.90
54082;DHT22;39986;50.770;0.266;2024-02-21T05:53:05;9.50;99.90
54082;DHT22;39986;50.770;0.266;2024-02-21T05:55:30;9.50;99.90
54082;DHT22;39986;50.770;0.266;2024-02-21T05:57:56;9.50;99.90
54082;DHT22;39986;50.770;0.266;2024-02-21T06:00:21;9.50;99.90
54082;DHT22;39986;50.770;0.266;2024-02-21T06:02:47;9.60;99.90
54082;DHT22;39986;50.770;0.266;2024-02-21T06:05:12;9.40;99.90
54082;DHT22;39986;50.770;0.266;2024-02-21T06:07:38;9.40;99.90
54082;DHT22;39986;50.770;0.266;2024-02-21T06:10:03;9.60;99.90
54082;DHT22;39986;50.770;0.266;2024-02-21T06:12:29;9.40;99.90
54082;DHT22;39986;50.770;0.266;2024-02-21T06:14:55;9.50;99.90
54082;DHT22;39986;50.770;0.266;2024-02-21T06:22:12;9.50;99.90
54082;DHT22;39986;50.770;0.266;2024-02-21T06:24:38;9.40;99.90
54082;DHT22;39986;50.770;0.266;2024-02-21T06:29:31;9.40;99.90
54082;DHT22;39986;50.770;0.266;2024-02-21T06:31:57;9.50;99.90
54082;DHT22;39986;50.770;0.266;2024-02-21T06:34:22;9.30;99.90
54082;DHT22;39986;50.770;0.266;2024-02-21T06:36:48;9.40;99.90
54082;DHT22;39986;50.770;0.266;2024-02-21T06:39:14;9.40;99.90
54082;DHT22;39986;50.770;0.266;2024-02-21T06:44:05;9.60;99.90
54082;DHT22;39986;50.770;0.266;2024-02-21T06:46:31;9.50;99.90
54082;DHT22;39986;50.770;0.266;2024-02-21T06:49:00;9.70;99.90
54082;DHT22;39986;50.770;0.266;2024-02-21T06:58:43;9.60;99.90
54082;DHT22;39986;50.770;0.266;2024-02-21T07:01:10;9.40;99.90
54082;DHT22;39986;50.770;0.266;2024-02-21T07:03:35;9.60;99.90
54082;DHT22;39986;50.770;0.266;2024-02-21T07:06:01;9.50;99.90
54082;DHT22;39986;50.770;0.266;2024-02-21T07:08:27;9.50;99.90
54082;DHT22;39986;50.770;0.266;2024-02-21T07:10:52;9.70;99.90
54082;DHT22;39986;50.770;0.266;2024-02-21T07:13:18;9.50;99.90
54082;DHT22;39986;50.770;0.266;2024-02-21T07:15:43;9.70;99.90
54082;DHT22;39986;50.770;0.266;2024-02-21T07:18:09;9.80;99.90
54082;DHT22;39986;50.770;0.266;2024-02-21T07:23:03;9.70;99.90
54082;DHT22;39986;50.770;0.266;2024-02-21T07:35:12;9.70;99.90
54082;DHT22;39986;50.770;0.266;2024-02-21T07:37:38;9.60;99.90
54082;DHT22;39986;50.770;0.266;2024-02-21T07:40:06;9.80;99.90
54082;DHT22;39986;50.770;0.266;2024-02-21T07:44:58;9.70;99.90
54082;DHT22;39986;50.770;0.266;2024-02-21T07:59:33;9.90;99.90
54082;DHT22;39986;50.770;0.266;2024-02-21T08:04:25;9.90;99.90
54082;DHT22;39986;50.770;0.266;2024-02-21T08:09:18;9.90;99.90
54082;DHT22;39986;50.770;0.266;2024-02-21T08:23:55;10.00;99.90
54082;DHT22;39986;50.770;0.266;2024-02-21T08:43:23;10.00;99.90
54082;DHT22;39986;50.770;0.266;2024-02-21T08:55:32;10.00;99.90
54082;DHT22;39986;50.770;0.266;2024-02-21T09:02:52;10.00;99.90
54082;DHT22;39986;50.770;0.266;2024-02-21T09:07:43;10.10;99.90
54082;DHT22;39986;50.770;0.266;2024-02-21T09:15:01;10.20;99.90
54082;DHT22;39986;50.770;0.266;2024-02-21T09:29:39;10.40;99.90
54082;DHT22;39986;50.770;0.266;2024-02-21T09:34:31;10.30;99.90
54082;DHT22;39986;50.770;0.266;2024-02-21T09:39:22;10.20;99.90
54082;DHT22;39986;50.770;0.266;2024-02-21T09:46:45;10.10;99.90
54082;DHT22;39986;50.770;0.266;2024-02-21T09:54:10;10.00;99.90
54082;DHT22;39986;50.770;0.266;2024-02-21T09:59:02;9.70;99.90
54082;DHT22;39986;50.770;0.266;2024-02-21T10:08:52;9.90;99.90
54082;DHT22;39986;50.770;0.266;2024-02-21T10:21:06;10.00;99.90
54082;DHT22;39986;50.770;0.266;2024-02-21T10:23:48;9.90;99.90
54082;DHT22;39986;50.770;0.266;2024-02-21T10:28:40;9.90;99.90
54082;DHT22;39986;50.770;0.266;2024-02-21T10:31:26;9.70;99.90
54082;DHT22;39986;50.770;0.266;2024-02-21T10:41:09;9.90;99.90
54082;DHT22;39986;50.770;0.266;2024-02-21T10:51:04;9.80;99.90
54082;DHT22;39986;50.770;0.266;2024-02-21T10:56:06;9.60;99.90
54082;DHT22;39986;50.770;0.266;2024-02-21T10:58:32;9.90;99.90
54082;DHT22;39986;50.770;0.266;2024-02-21T11:03:23;9.80;99.90
54082;DHT22;39986;50.770;0.266;2024-02-21T11:08:15;9.90;99.90
54082;DHT22;39986;50.770;0.266;2024-02-21T11:10:45;7.40;99.90
54082;DHT22;39986;50.770;0.266;2024-02-21T11:25:23;9.90;99.90
54082;DHT22;39986;50.770;0.266;2024-02-21T11:32:47;9.80;99.90
54082;DHT22;39986;50.770;0.266;2024-02-21T11:35:19;9.80;99.90
54082;DHT22;39986;50.770;0.266;2024-02-21T11:40:11;10.00;99.90
54082;DHT22;39986;50.770;0.266;2024-02-21T11:45:03;9.80;99.90
54082;DHT22;39986;50.770;0.266;2024-02-21T11:57:13;9.90;99.90
54082;DHT22;39986;50.770;0.266;2024-02-21T12:16:41;9.90;99.90
54082;DHT22;39986;50.770;0.266;2024-02-21T12:19:07;10.10;99.90
54082;DHT22;39986;50.770;0.266;2024-02-21T12:21:34;9.80;99.90
54082;DHT22;39986;50.770;0.266;2024-02-21T12:24:15;10.00;99.90
54082;DHT22;39986;50.770;0.266;2024-02-21T12:26:41;9.90;99.90
54082;DHT22;39986;50.770;0.266;2024-02-21T12:29:07;9.80;99.90
54082;DHT22;39986;50.770;0.266;2024-02-21T12:31:37;9.90;99.90
54082;DHT22;39986;50.770;0.266;2024-02-21T12:36:32;10.00;99.90
54082;DHT22;39986;50.770;0.266;2024-02-21T12:38:58;9.90;99.90
54082;DHT22;39986;50.770;0.266;2024-02-21T12:41:24;9.90;99.90
54082;DHT22;39986;50.770;0.266;2024-02-21T12:46:16;10.00;99.90
54082;DHT22;39986;50.770;0.266;2024-02-21T12:51:08;10.00;99.90
54082;DHT22;39986;50.770;0.266;2024-02-21T12:58:25;10.10;99.90
54082;DHT22;39986;50.770;0.266;2024-02-21T13:03:17;10.10;99.90
54082;DHT22;39986;50.770;0.266;2024-02-21T13:05:42;10.10;99.90
54082;DHT22;39986;50.770;0.266;2024-02-21T13:08:11;10.00;99.90
54082;DHT22;39986;50.770;0.266;2024-02-21T13:10:37;10.00;99.90
54082;DHT22;39986;50.770;0.266;2024-02-21T13:13:03;10.10;99.90
54082;DHT22;39986;50.770;0.266;2024-02-21T13:15:28;10.20;99.90
54082;DHT22;39986;50.770;0.266;2024-02-21T13:17:55;10.00;99.90
54082;DHT22;39986;50.770;0.266;2024-02-21T13:22:47;10.20;99.90
54082;DHT22;39986;50.770;0.266;2024-02-21T13:42:20;10.40;99.90
54082;DHT22;39986;50.770;0.266;2024-02-21T13:47:13;10.30;99.90
54082;DHT22;39986;50.770;0.266;2024-02-21T13:49:39;10.40;99.90
54082;DHT22;39986;50.770;0.266;2024-02-21T13:59:22;10.50;99.90
54082;DHT22;39986;50.770;0.266;2024-02-21T14:04:14;10.50;99.90
54082;DHT22;39986;50.770;0.266;2024-02-21T14:06:39;10.50;99.90
54082;DHT22;39986;50.770;0.266;2024-02-21T14:11:34;12.00;99.90
54082;DHT22;39986;50.770;0.266;2024-02-21T14:18:52;10.40;99.90
54082;DHT22;39986;50.770;0.266;2024-02-21T14:21:18;10.40;99.90
54082;DHT22;39986;50.770;0.266;2024-02-21T14:23:45;10.40;99.90
54082;DHT22;39986;50.770;0.266;2024-02-21T14:26:10;10.40;99.90
54082;DHT22;39986;50.770;0.266;2024-02-21T14:28:37;10.30;99.90
54082;DHT22;39986;50.770;0.266;2024-02-21T14:33:31;10.40;99.90
54082;DHT22;39986;50.770;0.266;2024-02-21T14:40:48;10.30;99.90
54082;DHT22;39986;50.770;0.266;2024-02-21T14:43:14;10.30;99.90
54082;DHT22;39986;50.770;0.266;2024-02-21T14:45:39;10.40;99.90
54082;DHT22;39986;50.770;0.266;2024-02-21T14:48:05;10.30;99.90
54082;DHT22;39986;50.770;0.266;2024-02-21T14:50:31;10.40;99.90
54082;DHT22;39986;50.770;0.266;2024-02-21T15:27:02;10.20;99.90
54082;DHT22;39986;50.770;0.266;2024-02-21T15:29:28;10.30;99.90
54082;DHT22;39986;50.770;0.266;2024-02-21T15:31:53;10.20;99.90
54082;DHT22;39986;50.770;0.266;2024-02-21T15:36:45;10.20;99.90
54082;DHT22;39986;50.770;0.266;2024-02-21T15:39:10;10.20;99.90
54082;DHT22;39986;50.770;0.266;2024-02-21T15:41:36;10.50;99.90
54082;DHT22;39986;50.770;0.266;2024-02-21T15:44:02;10.30;99.90
54082;DHT22;39986;50.770;0.266;2024-02-21T15:51:22;10.30;99.90
54082;DHT22;39986;50.770;0.266;2024-02-21T16:10:54;10.40;99.90
54082;DHT22;39986;50.770;0.266;2024-02-21T16:15:47;10.50;99.90
54082;DHT22;39986;50.770;0.266;2024-02-21T16:20:45;10.40;99.90
54082;DHT22;39986;50.770;0.266;2024-02-21T16:25:39;10.40;99.90
54082;DHT22;39986;50.770;0.266;2024-02-21T16:28:05;10.40;99.90
54082;DHT22;39986;50.770;0.266;2024-02-21T16:32:58;10.40;99.90
54082;DHT22;39986;50.770;0.266;2024-02-21T16:35:24;10.60;99.90
54082;DHT22;39986;50.770;0.266;2024-02-21T16:37:53;10.50;99.90
54082;DHT22;39986;50.770;0.266;2024-02-21T16:42:44;10.50;99.90
54082;DHT22;39986;50.770;0.266;2024-02-21T16:47:36;10.50;99.90
54082;DHT22;39986;50.770;0.266;2024-02-21T16:52:27;10.50;99.90
54082;DHT22;39986;50.770;0.266;2024-02-21T16:54:53;10.60;99.90
54082;DHT22;39986;50.770;0.266;2024-02-21T16:57:18;10.90;99.90
54082;DHT22;39986;50.770;0.266;2024-02-21T16:59:44;10.60;99.90
54082;DHT22;39986;50.770;0.266;2024-02-21T17:04:35;10.70;99.90
54082;DHT22;39986;50.770;0.266;2024-02-21T17:07:01;10.90;99.90
54082;DHT22;39986;50.770;0.266;2024-02-21T17:14:19;10.80;99.90
54082;DHT22;39986;50.770;0.266;2024-02-21T17:21:37;10.80;99.90
54082;DHT22;39986;50.770;0.266;2024-02-21T17:24:02;10.80;99.90
54082;DHT22;39986;50.770;0.266;2024-02-21T17:26:28;10.80;99.90
54082;DHT22;39986;50.770;0.266;2024-02-21T17:28:54;10.80;99.90
54082;DHT22;39986;50.770;0.266;2024-02-21T17:31:20;10.80;99.90
54082;DHT22;39986;50.770;0.266;2024-02-21T17:33:46;10.90;99.90
54082;DHT22;39986;50.770;0.266;2024-02-21T17:36:11;10.80;99.90
54082;DHT22;39986;50.770;0.266;2024-02-21T17:43:29;10.80;99.90
54082;DHT22;39986;50.770;0.266;2024-02-21T17:46:00;11.00;99.90
54082;DHT22;39986;50.770;0.266;2024-02-21T17:48:26;10.90;99.90
54082;DHT22;39986;50.770;0.266;2024-02-21T17:50:52;10.90;99.90
54082;DHT22;39986;50.770;0.266;2024-02-21T17:53:17;11.00;99.90
54082;DHT22;39986;50.770;0.266;2024-02-21T17:55:43;11.10;99.90
54082;DHT22;39986;50.770;0.266;2024-02-21T17:58:08;11.00;99.90
54082;DHT22;39986;50.770;0.266;2024-02-21T18:05:26;11.00;99.90
54082;DHT22;39986;50.770;0.266;2024-02-21T18:07:52;10.90;99.90
54082;DHT22;39986;50.770;0.266;2024-02-21T18:10:18;10.90;99.90
54082;DHT22;39986;50.770;0.266;2024-02-21T18:12:43;10.90;99.90
54082;DHT22;39986;50.770;0.266;2024-02-21T18:15:09;10.80;99.90
54082;DHT22;39986;50.770;0.266;2024-02-21T18:17:37;10.80;99.90
54082;DHT22;39986;50.770;0.266;2024-02-21T18:20:03;11.00;99.90
54082;DHT22;39986;50.770;0.266;2024-02-21T18:22:29;11.00;99.90
54082;DHT22;39986;50.770;0.266;2024-02-21T18:24:54;11.10;99.90
54082;DHT22;39986;50.770;0.266;2024-02-21T18:27:20;10.90;99.90
54082;DHT22;39986;50.770;0.266;2024-02-21T18:29:48;11.00;99.90
54082;DHT22;39986;50.770;0.266;2024-02-21T18:32:13;10.90;99.90
54082;DHT22;39986;50.770;0.266;2024-02-21T18:37:04;11.00;99.90
54082;DHT22;39986;50.770;0.266;2024-02-21T18:39:30;11.00;99.90
54082;DHT22;39986;50.770;0.266;2024-02-21T18:41:56;11.00;99.90
54082;DHT22;39986;50.770;0.266;2024-02-21T18:44:22;11.00;99.90
54082;DHT22;39986;50.770;0.266;2024-02-21T18:46:47;11.00;99.90
54082;DHT22;39986;50.770;0.266;2024-02-21T18:49:13;10.90;99.90
54082;DHT22;39986;50.770;0.266;2024-02-21T18:51:38;10.80;99.90
54082;DHT22;39986;50.770;0.266;2024-02-21T18:54:05;10.90;99.90
54082;DHT22;39986;50.770;0.266;2024-02-21T18:56:30;11.00;99.90
54082;DHT22;39986;50.770;0.266;2024-02-21T18:58:59;10.90;99.90
54082;DHT22;39986;50.770;0.266;2024-02-21T19:01:24;10.90;99.90
54082;DHT22;39986;50.770;0.266;2024-02-21T19:03:50;10.80;99.90
54082;DHT22;39986;50.770;0.266;2024-02-21T19:06:15;10.80;99.90
54082;DHT22;39986;50.770;0.266;2024-02-21T19:08:41;10.90;99.90
54082;DHT22;39986;50.770;0.266;2024-02-21T19:11:07;10.80;99.90
54082;DHT22;39986;50.770;0.266;2024-02-21T19:15:58;10.90;99.90
54082;DHT22;39986;50.770;0.266;2024-02-21T19:18:24;10.90;99.90
54082;DHT22;39986;50.770;0.266;2024-02-21T19:20:49;10.80;99.90
54082;DHT22;39986;50.770;0.266;2024-02-21T19:23:15;10.80;99.90
54082;DHT22;39986;50.770;0.266;2024-02-21T19:25:40;10.70;99.90
54082;DHT22;39986;50.770;0.266;2024-02-21T19:28:08;10.70;99.90
54082;DHT22;39986;50.770;0.266;2024-02-21T19:30:36;10.70;99.90
54082;DHT22;39986;50.770;0.266;2024-02-21T19:33:02;10.80;99.90
54082;DHT22;39986;50.770;0.266;2024-02-21T19:35:28;10.70;99.90
54082;DHT22;39986;50.770;0.266;2024-02-21T19:37:54;10.80;99.90
54082;DHT22;39986;50.770;0.266;2024-02-21T19:40:20;10.60;99.90
54082;DHT22;39986;50.770;0.266;2024-02-21T19:42:45;10.60;99.90
54082;DHT22;39986;50.770;0.266;2024-02-21T19:45:11;10.60;99.90
54082;DHT22;39986;50.770;0.266;2024-02-21T19:47:37;10.60;99.90
54082;DHT22;39986;50.770;0.266;2024-02-21T19:50:02;10.50;99.90
54082;DHT22;39986;50.770;0.266;2024-02-21T19:52:28;10.50;99.90
54082;DHT22;39986;50.770;0.266;2024-02-21T19:54:54;10.70;99.90
54082;DHT22;39986;50.770;0.266;2024-02-21T19:57:19;10.50;99.90
54082;DHT22;39986;50.770;0.266;2024-02-21T19:59:47;10.30;99.90
54082;DHT22;39986;50.770;0.266;2024-02-21T20:02:13;10.60;99.90
54082;DHT22;39986;50.770;0.266;2024-02-21T20:04:38;10.60;99.90
54082;DHT22;39986;50.770;0.266;2024-02-21T20:07:04;10.50;99.90
54082;DHT22;39986;50.770;0.266;2024-02-21T20:09:29;10.60;99.90
54082;DHT22;39986;50.770;0.266;2024-02-21T20:11:54;10.50;99.90
54082;DHT22;39986;50.770;0.266;2024-02-21T20:14:20;10.50;99.90
54082;DHT22;39986;50.770;0.266;2024-02-21T20:16:46;10.50;99.90
54082;DHT22;39986;50.770;0.266;2024-02-21T20:21:39;10.50;99.90
54082;DHT22;39986;50.770;0.266;2024-02-21T20:24:07;10.50;99.90
54082;DHT22;39986;50.770;0.266;2024-02-21T20:26:33;10.50;99.90
54082;DHT22;39986;50.770;0.266;2024-02-21T20:28:58;10.50;99.90
54082;DHT22;39986;50.770;0.266;2024-02-21T20:31:24;10.50;99.90
54082;DHT22;39986;50.770;0.266;2024-02-21T20:33:50;10.40;99.90
54082;DHT22;39986;50.770;0.266;2024-02-21T20:36:17;10.40;99.90
54082;DHT22;39986;50.770;0.266;2024-02-21T20:38:42;10.50;99.90
54082;DHT22;39986;50.770;0.266;2024-02-21T20:41:15;10.50;99.90
54082;DHT22;39986;50.770;0.266;2024-02-21T20:43:41;10.40;99.90
54082;DHT22;39986;50.770;0.266;2024-02-21T20:46:06;10.40;99.90
54082;DHT22;39986;50.770;0.266;2024-02-21T20:48:32;10.40;99.90
54082;DHT22;39986;50.770;0.266;2024-02-21T20:53:23;10.40;99.90
54082;DHT22;39986;50.770;0.266;2024-02-21T20:55:51;10.30;99.90
54082;DHT22;39986;50.770;0.266;2024-02-21T20:58:16;10.40;99.90
54082;DHT22;39986;50.770;0.266;2024-02-21T21:00:42;10.40;99.90
54082;DHT22;39986;50.770;0.266;2024-02-21T21:03:11;10.50;99.90
54082;DHT22;39986;50.770;0.266;2024-02-21T21:05:36;10.40;99.90
54082;DHT22;39986;50.770;0.266;2024-02-21T21:08:02;10.40;99.90
54082;DHT22;39986;50.770;0.266;2024-02-21T21:10:28;10.30;99.90
54082;DHT22;39986;50.770;0.266;2024-02-21T21:12:54;10.40;99.90
54082;DHT22;39986;50.770;0.266;2024-02-21T21:15:19;10.40;99.90
54082;DHT22;39986;50.770;0.266;2024-02-21T21:17:45;10.40;99.90
54082;DHT22;39986;50.770;0.266;2024-02-21T21:20:10;10.40;99.90
54082;DHT22;39986;50.770;0.266;2024-02-21T21:22:37;10.60;99.90
54082;DHT22;39986;50.770;0.266;2024-02-21T21:25:05;10.30;99.90
54082;DHT22;39986;50.770;0.266;2024-02-21T21:29:56;10.40;99.90
54082;DHT22;39986;50.770;0.266;2024-02-21T21:32:22;10.30;99.90
54082;DHT22;39986;50.770;0.266;2024-02-21T21:34:47;10.30;99.90
54082;DHT22;39986;50.770;0.266;2024-02-21T21:37:13;10.30;99.90
54082;DHT22;39986;50.770;0.266;2024-02-21T21:42:12;10.40;99.90
54082;DHT22;39986;50.770;0.266;2024-02-21T21:44:38;10.40;99.90
54082;DHT22;39986;50.770;0.266;2024-02-21T21:49:29;10.20;99.90
54082;DHT22;39986;50.770;0.266;2024-02-21T21:51:57;10.20;99.90
54082;DHT22;39986;50.770;0.266;2024-02-21T21:54:23;10.20;99.90
54082;DHT22;39986;50.770;0.266;2024-02-21T21:56:48;10.20;99.90
54082;DHT22;39986;50.770;0.266;2024-02-21T21:59:14;10.10;99.90
54082;DHT22;39986;50.770;0.266;2024-02-21T22:01:39;10.40;99.90
54082;DHT22;39986;50.770;0.266;2024-02-21T22:06:31;10.50;99.90
54082;DHT22;39986;50.770;0.266;2024-02-21T22:08:57;10.10;99.90
54082;DHT22;39986;50.770;0.266;2024-02-21T22:11:22;10.30;99.90
54082;DHT22;39986;50.770;0.266;2024-02-21T22:13:48;10.40;99.90
54082;DHT22;39986;50.770;0.266;2024-02-21T22:16:14;10.30;99.90
54082;DHT22;39986;50.770;0.266;2024-02-21T22:18:41;10.40;99.90
54082;DHT22;39986;50.770;0.266;2024-02-21T22:21:07;10.40;99.90
54082;DHT22;39986;50.770;0.266;2024-02-21T22:23:32;10.40;99.90
54082;DHT22;39986;50.770;0.266;2024-02-21T22:25:58;10.40;99.90
54082;DHT22;39986;50.770;0.266;2024-02-21T22:28:23;10.50;99.90
54082;DHT22;39986;50.770;0.266;2024-02-21T22:30:49;10.20;99.90
54082;DHT22;39986;50.770;0.266;2024-02-21T22:33:15;10.30;99.90
54082;DHT22;39986;50.770;0.266;2024-02-21T22:38:10;10.40;99.90
54082;DHT22;39986;50.770;0.266;2024-02-21T22:40:36;10.30;99.90